Time;durP1;ratioP1;P1;durP2;ratioP2;P2;SDS_P1;SDS_P2;PMS_P1;PMS_P2;Temp;Humidity;BMP_temperature;BMP_pressure;BME280_temperature;BME280_humidity;BME280_pressure;Samples;Min_cycle;Max_cycle;Signal;HPM_P1;HPM_P2
2022/05/02 00:00:22;;;;;;;0.10;0.10;;;;;;;14.25;78.91;101493.09;7362958;19;20582;-62
2022/05/02 00:02:48;;;;;;;0.00;0.00;;;;;;;14.12;79.21;101481.16;7356178;19;20010;-62
2022/05/02 00:05:13;;;;;;;0.00;0.00;;;;;;;14.13;78.92;101487.28;7359603;19;20016;-62
2022/05/02 00:07:39;;;;;;;0.00;0.00;;;;;;;14.22;78.91;101503.69;7360894;19;20729;-62
2022/05/02 00:10:06;;;;;;;0.00;0.00;;;;;;;14.13;78.88;101487.28;7349114;19;20010;-62
2022/05/02 00:12:31;;;;;;;0.00;0.00;;;;;;;14.12;78.81;101490.81;7361715;19;20077;-62
2022/05/02 00:14:57;;;;;;;0.00;0.00;;;;;;;14.21;79.06;101501.09;7353677;19;20034;-62
2022/05/02 00:17:56;;;;;;;0.10;0.10;;;;;;;14.20;79.22;101500.25;7362666;19;20074;-62
2022/05/02 00:20:08;;;;;;;0.10;0.10;;;;;;;14.21;79.22;101501.09;7350901;19;20014;-62
2022/05/02 00:22:34;;;;;;;0.10;0.10;;;;;;;14.05;79.09;101474.34;7359839;19;20014;-62
2022/05/02 00:24:59;;;;;;;0.00;0.00;;;;;;;14.21;79.28;101501.09;7361829;19;20024;-62
2022/05/02 00:27:26;;;;;;;0.00;0.00;;;;;;;14.19;79.13;101498.53;7345650;19;20027;-62
2022/05/02 00:29:51;;;;;;;0.00;0.00;;;;;;;14.21;79.35;101495.84;7351393;19;20681;-61
2022/05/02 00:32:16;;;;;;;0.00;0.00;;;;;;;14.12;79.43;101493.44;7359701;19;20010;-62
2022/05/02 00:34:42;;;;;;;0.00;0.00;;;;;;;14.09;79.12;101476.00;7359741;19;20010;-62
2022/05/02 00:37:07;;;;;;;0.00;0.00;;;;;;;14.23;78.92;101499.28;7358819;19;20506;-62
2022/05/02 00:39:33;;;;;;;0.00;0.00;;;;;;;14.22;78.97;101498.44;7348075;19;20819;-62
2022/05/02 00:41:58;;;;;;;0.00;0.00;;;;;;;14.24;79.18;101501.91;7358298;19;20050;-63
2022/05/02 00:44:24;;;;;;;0.00;0.00;;;;;;;14.18;78.94;101490.66;7352539;19;20018;-62
2022/05/02 00:46:50;;;;;;;0.00;0.00;;;;;;;14.26;79.23;101496.59;7354772;19;20526;-62
2022/05/02 00:49:16;;;;;;;0.00;0.00;;;;;;;14.25;78.91;101498.38;7358545;19;20021;-62
2022/05/02 00:51:41;;;;;;;0.00;0.00;;;;;;;14.25;79.07;101498.38;7361968;19;20010;-62
2022/05/02 00:54:07;;;;;;;0.00;0.00;;;;;;;14.26;79.14;101500.09;7350827;19;20014;-62
2022/05/02 00:56:33;;;;;;;0.00;0.00;;;;;;;14.26;78.80;101505.34;7353209;19;20098;-62
2022/05/02 00:59:00;;;;;;;0.00;0.00;;;;;;;14.26;79.08;101510.59;7358512;19;20073;-62
2022/05/02 01:01:25;;;;;;;0.00;0.00;;;;;;;14.21;78.92;101496.72;7352975;19;20007;-62
2022/05/02 01:03:51;;;;;;;0.00;0.00;;;;;;;14.25;78.66;101502.75;7356657;19;20500;-62
2022/05/02 01:09:01;;;;;;;0.00;0.00;;;;;;;14.23;78.23;101497.53;7350921;19;20018;-62
2022/05/02 01:11:28;;;;;;;0.03;0.03;;;;;;;14.13;78.42;101482.91;7352694;19;20449;-62
2022/05/02 01:13:53;;;;;;;0.00;0.00;;;;;;;14.21;78.64;101496.72;7359679;19;20015;-61
2022/05/02 01:16:28;;;;;;;0.00;0.00;;;;;;;14.23;78.11;101500.16;7356497;19;20017;-62
2022/05/02 01:18:56;;;;;;;0.00;0.00;;;;;;;14.20;79.01;101500.25;7357532;19;20017;-62
2022/05/02 01:21:23;;;;;;;0.00;0.00;;;;;;;14.19;78.82;101503.78;7349882;19;20003;-63
2022/05/02 01:24:02;;;;;;;0.00;0.00;;;;;;;14.13;78.13;101493.41;7358121;19;20049;-61
2022/05/02 01:26:28;;;;;;;0.10;0.10;;;;;;;14.15;78.58;101496.88;7342949;19;20043;-61
2022/05/02 01:28:57;;;;;;;0.03;0.03;;;;;;;14.15;78.44;101496.88;7358282;19;20010;-62
2022/05/02 01:31:22;;;;;;;0.00;0.00;;;;;;;14.14;78.51;101494.25;7352641;19;20035;-62
2022/05/02 01:33:49;;;;;;;0.00;0.00;;;;;;;14.13;78.46;101493.41;7354262;19;20006;-62
2022/05/02 01:36:16;;;;;;;0.00;0.00;;;;;;;14.13;78.92;101498.66;7358262;19;20344;-62
2022/05/02 01:38:42;;;;;;;0.10;0.10;;;;;;;14.08;78.74;101495.28;7355364;19;20034;-62
2022/05/02 01:41:08;;;;;;;0.00;0.00;;;;;;;14.01;79.03;101484.06;7357015;19;20007;-62
2022/05/02 01:43:34;;;;;;;0.05;0.05;;;;;;;14.08;78.86;101500.53;7356736;19;20017;-62
2022/05/02 01:45:59;;;;;;;0.05;0.05;;;;;;;14.08;78.86;101495.28;7346989;19;20805;-61
2022/05/02 01:48:26;;;;;;;0.00;0.00;;;;;;;14.04;79.26;101498.91;7356881;19;20609;-62
2022/05/02 01:50:51;;;;;;;0.00;0.00;;;;;;;14.05;78.76;101505.88;7352853;19;20013;-62
2022/05/02 01:53:17;;;;;;;0.00;0.00;;;;;;;14.00;78.74;101498.09;7354127;19;20014;-62
2022/05/02 01:55:42;;;;;;;0.03;0.03;;;;;;;14.04;79.16;101504.16;7358026;19;20018;-62
2022/05/02 01:58:08;;;;;;;0.03;0.03;;;;;;;14.05;79.04;101505.00;7348782;19;20015;-63
2022/05/02 02:00:33;;;;;;;0.10;0.10;;;;;;;13.95;79.00;101489.47;7353954;19;20044;-62
2022/05/02 02:02:59;;;;;;;0.05;0.05;;;;;;;14.05;78.85;101505.00;7357331;19;20011;-63
2022/05/02 02:08:08;;;;;;;0.05;0.05;;;;;;;14.04;78.68;101504.16;7352270;19;20013;-62
2022/05/02 02:10:34;;;;;;;0.03;0.03;;;;;;;14.02;78.45;101505.94;7358574;19;20002;-62
2022/05/02 02:12:59;;;;;;;0.00;0.00;;;;;;;14.02;78.52;101505.94;7350125;19;20007;-62
2022/05/02 02:15:24;;;;;;;0.00;0.00;;;;;;;13.84;78.43;101474.84;7352721;19;21169;-62
2022/05/02 02:17:50;;;;;;;0.00;0.00;;;;;;;14.00;78.27;101513.00;7354338;19;20006;-61
2022/05/02 02:20:15;;;;;;;0.05;0.05;;;;;;;13.93;78.56;101506.16;7356994;19;20053;-63
2022/05/02 02:22:41;;;;;;;0.00;0.00;;;;;;;13.89;78.97;101499.25;7330752;19;20027;-62
2022/05/02 02:25:07;;;;;;;0.00;0.00;;;;;;;13.97;78.89;101508.66;7354353;19;20014;-62
2022/05/02 02:27:33;;;;;;;0.10;0.10;;;;;;;13.99;79.15;101516.53;7342428;19;20010;-62
2022/05/02 02:29:59;;;;;;;0.08;0.08;;;;;;;14.00;79.19;101518.25;7351734;19;20474;-62
2022/05/02 02:32:25;;;;;;;0.00;0.00;;;;;;;13.99;79.10;101512.13;7351073;19;20682;-60
2022/05/02 02:34:50;;;;;;;0.00;0.00;;;;;;;13.92;78.92;101504.44;7358473;19;20951;-60
2022/05/02 02:37:16;;;;;;;0.00;0.00;;;;;;;14.00;78.92;101513.00;7352143;19;20090;-62
2022/05/02 02:39:43;;;;;;;0.00;0.00;;;;;;;14.01;78.56;101514.72;7352472;19;20017;-63
2022/05/02 02:42:08;;;;;;;0.10;0.10;;;;;;;13.99;78.47;101516.53;7351338;19;20034;-63
2022/05/02 02:44:34;;;;;;;0.00;0.00;;;;;;;13.94;78.84;101513.16;7356907;19;20007;-60
2022/05/02 02:47:00;;;;;;;0.00;0.00;;;;;;;13.97;78.81;101518.31;7345170;19;20007;-62
2022/05/02 02:49:25;;;;;;;0.10;0.10;;;;;;;13.96;78.41;101516.59;7357929;19;20026;-62
2022/05/02 02:51:50;;;;;;;0.00;0.00;;;;;;;13.87;78.34;101501.06;7349092;19;20010;-61
2022/05/02 02:54:16;;;;;;;0.00;0.00;;;;;;;13.90;77.60;101506.25;7359193;19;20486;-63
2022/05/02 02:56:42;;;;;;;0.00;0.00;;;;;;;13.83;77.36;101510.75;7363295;19;20048;-62
2022/05/02 02:59:07;;;;;;;0.00;0.00;;;;;;;13.81;78.05;101516.94;7355727;19;20006;-62
2022/05/02 03:01:33;;;;;;;0.00;0.00;;;;;;;13.76;78.48;101519.69;7356838;19;20002;-62
2022/05/02 03:03:58;;;;;;;0.00;0.00;;;;;;;13.67;78.67;101507.63;7355933;19;20010;-63
2022/05/02 03:06:24;;;;;;;0.00;0.00;;;;;;;13.71;78.78;101519.78;7355582;19;20014;-61
2022/05/02 03:08:50;;;;;;;0.10;0.10;;;;;;;13.69;78.73;101513.72;7365557;19;20074;-60
2022/05/02 03:11:16;;;;;;;0.10;0.10;;;;;;;13.72;79.12;101513.63;7359333;19;20119;-62
2022/05/02 03:13:41;;;;;;;0.08;0.08;;;;;;;13.72;78.79;101518.00;7364236;19;20021;-63
2022/05/02 03:16:07;;;;;;;0.00;0.00;;;;;;;13.74;78.94;101522.34;7352092;19;20121;-62
2022/05/02 03:18:34;;;;;;;0.00;0.00;;;;;;;13.75;78.80;101518.81;7346703;19;20705;-62
2022/05/02 03:20:59;;;;;;;0.10;0.10;;;;;;;13.76;79.23;101525.78;7362158;19;20103;-62
2022/05/02 03:23:26;;;;;;;0.10;0.10;;;;;;;13.76;78.83;101520.53;7365166;19;20093;-61
2022/05/02 03:25:51;;;;;;;0.10;0.10;;;;;;;13.80;79.24;101525.72;7361991;19;23053;-62
2022/05/02 03:28:17;;;;;;;0.00;0.00;;;;;;;13.81;79.28;101524.81;7367903;19;20010;-62
2022/05/02 03:30:42;;;;;;;0.00;0.00;;;;;;;13.81;79.01;101523.06;7353793;19;20754;-62
2022/05/02 03:33:08;;;;;;;0.00;0.00;;;;;;;13.83;78.87;101520.38;7359873;19;20043;-63
2022/05/02 03:35:34;;;;;;;0.10;0.10;;;;;;;13.83;79.01;101530.88;7363379;19;20105;-63
2022/05/02 03:37:59;;;;;;;0.00;0.00;;;;;;;13.83;79.13;101528.25;7366585;19;20015;-63
2022/05/02 03:40:25;;;;;;;0.00;0.00;;;;;;;13.67;78.71;101498.88;7359871;19;20099;-63
2022/05/02 03:42:50;;;;;;;0.10;0.10;;;;;;;13.82;79.01;101524.78;7356009;19;20011;-63
2022/05/02 03:45:16;;;;;;;0.00;0.00;;;;;;;13.77;79.09;101521.41;7361638;19;20677;-62
2022/05/02 03:47:41;;;;;;;0.10;0.10;;;;;;;13.83;79.28;101523.00;7363958;19;20078;-63
2022/05/02 03:50:07;;;;;;;0.00;0.00;;;;;;;13.82;78.98;101523.91;7360782;19;20840;-63
2022/05/02 03:52:32;;;;;;;0.00;0.00;;;;;;;13.83;79.06;101528.25;7362911;19;20015;-62
2022/05/02 03:54:58;;;;;;;0.10;0.10;;;;;;;13.83;78.96;101529.13;7365815;19;20467;-63
2022/05/02 03:57:23;;;;;;;0.10;0.10;;;;;;;13.79;79.16;101524.88;7349382;19;20692;-62
2022/05/02 03:59:49;;;;;;;0.10;0.10;;;;;;;13.80;79.31;101515.22;7362092;19;20003;-62
2022/05/02 04:02:15;;;;;;;0.10;0.10;;;;;;;13.85;79.29;101521.25;7363512;19;20011;-62
2022/05/02 04:04:40;;;;;;;0.00;0.00;;;;;;;13.84;79.07;101522.09;7355222;19;20003;-63
2022/05/02 04:07:06;;;;;;;0.00;0.00;;;;;;;13.75;79.16;101510.09;7359132;19;20002;-62
2022/05/02 04:09:31;;;;;;;0.10;0.10;;;;;;;13.85;79.13;101518.63;7359326;19;20040;-62
2022/05/02 04:11:56;;;;;;;0.00;0.00;;;;;;;13.84;79.28;101517.75;7358816;19;20653;-63
2022/05/02 04:14:22;;;;;;;0.00;0.00;;;;;;;13.83;78.82;101521.25;7361578;19;20018;-61
2022/05/02 04:16:49;;;;;;;0.10;0.10;;;;;;;13.83;78.96;101516.00;7355626;19;20014;-63
2022/05/02 04:19:15;;;;;;;0.00;0.00;;;;;;;13.70;79.31;101499.69;7363707;19;20099;-62
2022/05/02 04:21:41;;;;;;;0.00;0.00;;;;;;;13.82;79.20;101514.28;7359764;19;20347;-62
2022/05/02 04:24:07;;;;;;;0.00;0.00;;;;;;;13.80;79.15;101517.84;7357792;19;20018;-62
2022/05/02 04:26:32;;;;;;;0.10;0.10;;;;;;;13.80;79.07;101515.22;7359747;19;20015;-62
2022/05/02 04:28:57;;;;;;;0.00;0.00;;;;;;;13.80;79.53;101512.59;7363442;19;20014;-63
2022/05/02 04:31:23;;;;;;;0.08;0.08;;;;;;;13.78;79.16;101512.63;7361371;19;20018;-62
2022/05/02 04:33:48;;;;;;;0.00;0.00;;;;;;;13.77;79.43;101516.16;7361322;19;20078;-62
2022/05/02 04:36:14;;;;;;;0.08;0.08;;;;;;;13.65;79.27;101505.94;7354245;19;20897;-63
2022/05/02 04:38:39;;;;;;;0.00;0.00;;;;;;;13.69;79.11;101524.22;7360932;19;20737;-62
2022/05/02 04:41:05;;;;;;;0.00;0.00;;;;;;;13.74;79.28;101532.84;7363334;19;20014;-62
2022/05/02 04:43:30;;;;;;;0.00;0.00;;;;;;;13.72;79.14;101526.75;7361361;19;20028;-62
2022/05/02 04:45:55;;;;;;;0.08;0.08;;;;;;;13.70;79.08;101528.56;7359849;19;20015;-63
2022/05/02 04:48:21;;;;;;;0.10;0.10;;;;;;;13.71;79.30;101530.28;7359022;19;20017;-61
2022/05/02 04:50:46;;;;;;;0.00;0.00;;;;;;;13.65;78.94;101521.69;7361112;19;20003;-62
2022/05/02 04:53:12;;;;;;;0.10;0.10;;;;;;;13.69;79.38;101529.47;7362851;19;20473;-62
2022/05/02 04:55:37;;;;;;;0.00;0.00;;;;;;;13.69;79.34;101532.09;7361807;19;20019;-63
2022/05/02 04:58:02;;;;;;;0.00;0.00;;;;;;;13.66;79.30;101529.50;7355605;19;20014;-61
2022/05/02 05:00:28;;;;;;;0.00;0.00;;;;;;;13.68;79.29;101532.09;7355181;19;20611;-63
2022/05/02 05:02:53;;;;;;;0.00;0.00;;;;;;;13.67;79.33;101531.25;7364797;19;20082;-62
2022/05/02 05:05:19;;;;;;;0.10;0.10;;;;;;;13.65;79.35;101532.19;7362689;19;20847;-62
2022/05/02 05:07:44;;;;;;;0.00;0.00;;;;;;;13.65;79.26;101538.28;7357175;19;20027;-62
2022/05/02 05:10:10;;;;;;;0.00;0.00;;;;;;;13.63;79.42;101534.81;7364011;19;20010;-62
2022/05/02 05:13:07;;;;;;;0.10;0.10;;;;;;;13.67;78.80;101540.88;7352327;19;20706;-62
2022/05/02 05:19:04;;;;;;;0.10;0.10;;;;;;;13.61;79.33;101541.88;7253433;19;2004629;-62
2022/05/02 05:21:41;;;;;;;0.10;0.10;;;;;;;13.62;79.36;101543.59;7353007;19;20015;-62
2022/05/02 05:24:31;;;;;;;0.00;0.00;;;;;;;13.62;78.91;101546.22;7361030;19;20003;-63
2022/05/02 05:27:29;;;;;;;0.10;0.10;;;;;;;13.62;78.64;101551.47;7357213;19;20771;-62
2022/05/02 05:30:04;;;;;;;0.10;0.10;;;;;;;13.52;79.10;101542.06;7248065;19;2004450;-62
2022/05/02 05:32:48;;;;;;;0.00;0.00;;;;;;;13.57;79.26;101557.72;7361619;19;20017;-62
2022/05/02 05:35:48;;;;;;;0.10;0.10;;;;;;;13.60;78.96;101553.28;7352585;19;20019;-61
2022/05/02 05:38:42;;;;;;;0.00;0.00;;;;;;;13.61;79.04;101549.75;7256191;19;2004160;-62
2022/05/02 05:41:23;;;;;;;0.08;0.08;;;;;;;13.61;79.05;101557.63;7256226;19;2004480;-62
2022/05/02 05:44:02;;;;;;;0.00;0.00;;;;;;;13.54;79.09;101542.91;7359513;19;20010;-62
2022/05/02 05:46:46;;;;;;;0.00;0.00;;;;;;;13.64;79.20;101560.19;7359146;19;20014;-63
2022/05/02 05:49:47;;;;;;;0.10;0.10;;;;;;;13.65;79.26;101561.91;7361260;19;20475;-60
2022/05/02 05:52:33;;;;;;;0.00;0.00;;;;;;;13.67;78.68;101567.97;7258995;19;2004360;-62
2022/05/02 05:55:15;;;;;;;0.00;0.00;;;;;;;13.68;78.77;101571.47;7356083;19;20010;-63
2022/05/02 05:58:14;;;;;;;0.05;0.05;;;;;;;13.71;78.74;101574.91;7358103;19;20002;-62
2022/05/02 06:00:50;;;;;;;0.00;0.00;;;;;;;13.72;79.19;101583.63;7243284;19;2004001;-62
2022/05/02 06:03:20;;;;;;;0.10;0.10;;;;;;;13.71;78.91;101585.41;7359932;19;20007;-62
2022/05/02 06:05:47;;;;;;;0.00;0.00;;;;;;;13.74;79.49;101582.72;7359922;19;20002;-62
2022/05/02 06:08:18;;;;;;;0.08;0.08;;;;;;;13.69;79.38;101576.72;7350665;19;20040;-62
2022/05/02 06:10:44;;;;;;;0.00;0.00;;;;;;;13.69;79.22;101566.22;7360214;19;20014;-62
2022/05/02 06:13:09;;;;;;;0.10;0.10;;;;;;;13.75;78.95;101573.94;7354636;19;20017;-62
2022/05/02 06:18:31;;;;;;;0.00;0.00;;;;;;;13.71;79.20;101550.41;7248487;19;2004453;-62
2022/05/02 06:21:02;;;;;;;0.10;0.10;;;;;;;13.93;78.83;101579.66;7358146;19;20019;-62
2022/05/02 06:23:32;;;;;;;0.10;0.10;;;;;;;13.93;79.15;101585.78;7360955;19;20027;-62
2022/05/02 06:25:58;;;;;;;0.00;0.00;;;;;;;13.95;79.21;101584.00;7357732;19;20041;-62
2022/05/02 06:28:31;;;;;;;0.00;0.00;;;;;;;13.99;79.05;101584.81;7359439;19;20091;-62
2022/05/02 06:30:59;;;;;;;0.10;0.10;;;;;;;14.04;79.14;101596.06;7365155;19;20010;-62
2022/05/02 06:33:25;;;;;;;0.00;0.00;;;;;;;14.05;78.79;101592.53;7365196;19;20118;-62
2022/05/02 06:35:50;;;;;;;0.10;0.10;;;;;;;14.09;79.11;101595.94;7354213;19;20081;-62
2022/05/02 06:38:52;;;;;;;0.00;0.00;;;;;;;14.18;78.15;101601.00;7363840;19;20099;-63
2022/05/02 06:41:38;;;;;;;0.10;0.10;;;;;;;14.19;78.68;101600.97;7258091;19;2004152;-63
2022/05/02 06:44:13;;;;;;;0.00;0.00;;;;;;;14.23;78.63;101599.13;7365303;19;20746;-62
2022/05/02 06:47:16;;;;;;;0.00;0.00;;;;;;;14.28;78.22;101600.72;7360091;19;20011;-62
2022/05/02 06:49:45;;;;;;;0.03;0.03;;;;;;;14.17;78.58;101581.75;7261457;19;2004206;-62
2022/05/02 06:52:11;;;;;;;0.10;0.10;;;;;;;14.29;78.66;101609.47;7363183;19;20018;-62
2022/05/02 06:54:57;;;;;;;0.10;0.10;;;;;;;14.36;78.21;101607.59;7348522;19;20464;-62
2022/05/02 06:57:55;;;;;;;0.10;0.10;;;;;;;14.31;77.89;101596.31;7359919;19;20016;-62
2022/05/02 07:00:20;;;;;;;0.10;0.10;;;;;;;14.35;77.96;101608.50;7261122;19;2004493;-62
2022/05/02 07:02:55;;;;;;;0.00;0.00;;;;;;;14.36;77.87;101612.84;7346511;19;20007;-63
2022/05/02 07:05:27;;;;;;;0.10;0.10;;;;;;;14.38;77.91;101618.91;7362289;19;20006;-63
2022/05/02 07:08:03;;;;;;;0.05;0.05;;;;;;;14.44;77.80;101613.50;7359815;19;20029;-63
2022/05/02 07:10:36;;;;;;;0.00;0.00;;;;;;;14.46;78.01;101624.88;7360220;19;20015;-62
2022/05/02 07:13:08;;;;;;;0.08;0.08;;;;;;;14.46;78.34;101627.50;7352188;19;20014;-63
2022/05/02 07:15:48;;;;;;;0.00;0.00;;;;;;;14.52;77.62;101622.13;7364846;19;20014;-63
2022/05/02 07:18:16;;;;;;;0.00;0.00;;;;;;;14.52;77.94;101632.63;7363166;19;20753;-63
2022/05/02 07:21:02;;;;;;;0.00;0.00;;;;;;;14.57;77.57;101636.00;7353856;19;20006;-62
2022/05/02 07:23:36;;;;;;;0.10;0.10;;;;;;;14.58;78.04;101632.47;7333635;19;20719;-62
2022/05/02 07:26:13;;;;;;;0.00;0.00;;;;;;;14.61;77.86;101635.03;7358622;19;20006;-63
2022/05/02 07:28:44;;;;;;;0.00;0.00;;;;;;;14.61;78.17;101637.66;7348246;19;20017;-62
2022/05/02 07:31:11;;;;;;;0.10;0.10;;;;;;;14.66;77.94;101634.94;7362874;19;20010;-62
2022/05/02 07:33:38;;;;;;;0.00;0.00;;;;;;;14.65;77.69;101620.91;7354253;19;20010;-60
2022/05/02 07:36:04;;;;;;;0.10;0.10;;;;;;;14.68;77.91;101623.47;7363753;19;20019;-61
2022/05/02 07:38:33;;;;;;;0.10;0.10;;;;;;;14.77;77.74;101630.25;7363131;19;20020;-63
2022/05/02 07:43:49;;;;;;;0.10;0.10;;;;;;;14.87;77.44;101641.41;7356325;19;20050;-62
2022/05/02 07:46:18;;;;;;;0.08;0.08;;;;;;;14.89;77.20;101644.84;7360496;19;20036;-62
2022/05/02 07:48:45;;;;;;;0.00;0.00;;;;;;;14.89;77.57;101639.59;7359841;19;20581;-62
2022/05/02 07:51:12;;;;;;;0.00;0.00;;;;;;;14.92;76.93;101643.00;7360853;19;20014;-62
2022/05/02 07:53:41;;;;;;;0.03;0.03;;;;;;;14.95;77.21;101642.94;7361393;19;20557;-63
2022/05/02 07:56:09;;;;;;;0.00;0.00;;;;;;;14.94;76.85;101637.72;7359211;19;20467;-62
2022/05/02 07:58:37;;;;;;;0.00;0.00;;;;;;;14.91;77.23;101627.28;7355272;19;19999;-62
2022/05/02 08:01:02;;;;;;;;;;;;;;;15.05;76.71;101644.44;7364815;19;20006;-62
2022/05/02 08:03:27;;;;;;;0.10;0.10;;;;;;;15.02;77.16;101647.13;7364233;19;19958;-61
2022/05/02 08:05:58;;;;;;;0.10;0.10;;;;;;;15.09;77.29;101650.47;7356233;19;20006;-63
2022/05/02 08:08:39;;;;;;;0.10;0.10;;;;;;;15.14;77.17;101651.19;7353801;19;20006;-62
2022/05/02 08:11:23;;;;;;;0.00;0.00;;;;;;;15.18;77.22;101650.22;7360447;19;20600;-62
2022/05/02 08:14:02;;;;;;;0.00;0.00;;;;;;;15.20;77.52;101651.03;7357280;19;20002;-61
2022/05/02 08:16:32;;;;;;;0.00;0.00;;;;;;;15.26;77.09;101653.53;7360326;19;20031;-63
2022/05/02 08:19:24;;;;;;;0.00;0.00;;;;;;;15.27;76.83;101649.97;7354501;19;20013;-62
2022/05/02 08:28:30;;;;;;;0.10;0.10;;;;;;;15.45;76.93;101658.25;7259093;19;2004434;-63
2022/05/02 08:31:19;;;;;;;0.10;0.10;;;;;;;15.49;76.50;101659.91;7353067;19;21123;-61
2022/05/02 08:33:55;;;;;;;0.10;0.10;;;;;;;15.49;76.74;101665.19;7361147;19;20015;-62
2022/05/02 08:36:33;;;;;;;0.10;0.10;;;;;;;15.54;76.54;101666.78;7353909;19;20007;-63
2022/05/02 08:39:03;;;;;;;0.10;0.10;;;;;;;15.54;76.92;101665.91;7358798;19;20463;-63
2022/05/02 08:41:29;;;;;;;0.10;0.10;;;;;;;15.56;76.49;101664.97;7358611;19;20015;-62
2022/05/02 08:44:19;;;;;;;0.05;0.05;;;;;;;15.65;76.54;101666.50;7358750;19;20129;-64
2022/05/02 08:47:05;;;;;;;0.10;0.10;;;;;;;15.69;76.03;101667.28;7251395;19;2004438;-62
2022/05/02 08:49:39;;;;;;;0.00;0.00;;;;;;;15.72;76.21;101667.22;7356319;19;20010;-63
2022/05/02 08:52:20;;;;;;;0.00;0.00;;;;;;;15.72;76.11;101668.06;7354639;19;20049;-63
2022/05/02 08:55:02;;;;;;;0.10;0.10;;;;;;;15.77;76.24;101666.16;7360533;19;20010;-62
2022/05/02 08:57:49;;;;;;;0.10;0.10;;;;;;;15.81;76.33;101662.53;7344725;19;20034;-63
2022/05/02 09:00:27;;;;;;;0.10;0.10;;;;;;;15.74;76.41;101655.72;7354482;19;20014;-63
2022/05/02 09:03:30;;;;;;;0.00;0.00;;;;;;;15.89;76.39;101669.34;7362671;19;20017;-64
2022/05/02 09:06:07;;;;;;;0.10;0.10;;;;;;;15.88;76.20;101657.94;7257422;19;2004491;-62
2022/05/02 09:08:36;;;;;;;0.10;0.10;;;;;;;15.93;76.23;101663.09;7349593;19;20017;-62
2022/05/02 09:11:10;;;;;;;0.00;0.00;;;;;;;15.93;76.42;101660.44;7358561;19;20021;-63
2022/05/02 09:14:27;;;;;;;0.05;0.05;;;;;;;16.01;76.16;101664.56;7358840;19;20074;-61
2022/05/02 09:17:12;;;;;;;0.10;0.10;;;;;;;16.05;75.89;101665.34;7253715;19;2004396;-63
2022/05/02 09:19:55;;;;;;;0.10;0.10;;;;;;;16.03;76.09;101661.91;7354488;19;20007;-62
2022/05/02 09:22:38;;;;;;;0.00;0.00;;;;;;;16.02;75.76;101663.69;7355944;19;20010;-63
2022/05/02 09:25:08;;;;;;;0.00;0.00;;;;;;;15.97;75.78;101662.09;7354489;19;20010;-62
2022/05/02 09:27:38;;;;;;;0.10;0.10;;;;;;;15.99;75.76;101665.53;7358734;19;20918;-63
2022/05/02 09:30:33;;;;;;;0.00;0.00;;;;;;;16.02;76.02;101665.47;7356663;19;21822;-62
2022/05/02 09:33:35;;;;;;;0.10;0.10;;;;;;;16.03;75.84;101672.44;7246938;19;2004612;-62
2022/05/02 09:36:20;;;;;;;0.00;0.00;;;;;;;16.02;75.82;101676.00;7256416;19;2004618;-63
2022/05/02 09:38:51;;;;;;;0.10;0.10;;;;;;;16.01;75.94;101674.25;7356494;19;20017;-63
2022/05/02 09:41:37;;;;;;;0.10;0.10;;;;;;;15.95;75.88;101669.16;7358368;19;20014;-62
2022/05/02 09:50:37;;;;;;;0.03;0.03;;;;;;;15.99;76.05;101670.81;7241563;19;2004365;-63
2022/05/02 09:53:28;;;;;;;0.10;0.10;;;;;;;16.11;75.99;101686.22;7359339;19;20011;-62
2022/05/02 09:59:07;;;;;;;0.00;0.00;;;;;;;16.21;75.81;101685.03;7252601;19;2004328;-63
2022/05/02 10:01:34;;;;;;;0.10;0.10;;;;;;;16.19;75.81;101689.50;7347025;19;20406;-63
2022/05/02 10:04:07;;;;;;;0.10;0.10;;;;;;;16.25;75.93;101684.03;7343402;19;20036;-63
2022/05/02 10:06:43;;;;;;;0.00;0.00;;;;;;;16.31;75.56;101696.19;7360358;19;20014;-63
2022/05/02 10:09:27;;;;;;;0.05;0.05;;;;;;;16.37;75.58;101698.63;7348928;19;20010;-62
2022/05/02 10:12:12;;;;;;;0.10;0.10;;;;;;;16.39;75.65;101698.59;7308653;19;20430;-61
2022/05/02 10:14:44;;;;;;;0.00;0.00;;;;;;;16.18;75.67;101665.84;7341669;19;20006;-61
2022/05/02 10:17:17;;;;;;;0.00;0.00;;;;;;;16.41;75.02;101702.03;7350849;19;20011;-62
2022/05/02 10:19:48;;;;;;;0.10;0.10;;;;;;;16.41;75.41;101699.38;7341680;19;20010;-63
2022/05/02 10:22:30;;;;;;;0.10;0.10;;;;;;;16.46;75.23;101703.59;7352116;19;20017;-63
2022/05/02 10:24:55;;;;;;;0.10;0.10;;;;;;;16.47;74.99;101704.47;7352082;19;20014;-63
2022/05/02 10:27:37;;;;;;;0.10;0.10;;;;;;;16.54;75.13;101711.28;7360293;19;20014;-62
2022/05/02 10:30:12;;;;;;;0.00;0.00;;;;;;;16.57;74.78;101703.25;7357245;19;20692;-63
2022/05/02 10:32:49;;;;;;;0.10;0.10;;;;;;;16.53;75.23;101699.03;7354453;19;20030;-62
2022/05/02 10:35:17;;;;;;;;;;;;;;;16.64;75.19;101703.97;7360586;19;20070;-63
2022/05/02 10:38:02;;;;;;;0.10;0.10;;;;;;;16.54;74.78;101684.94;7358968;19;19919;-63
2022/05/02 10:40:41;;;;;;;0.10;0.10;;;;;;;16.67;74.64;101709.13;7362390;19;20010;-63
2022/05/02 10:43:09;;;;;;;0.05;0.05;;;;;;;16.63;74.31;101705.75;7349987;19;20014;-62
2022/05/02 10:45:36;;;;;;;0.00;0.00;;;;;;;16.65;74.80;101713.59;7344880;19;20015;-62
2022/05/02 10:48:11;;;;;;;0.10;0.10;;;;;;;16.69;74.41;101710.81;7360448;19;20006;-63
2022/05/02 10:50:37;;;;;;;0.03;0.03;;;;;;;16.58;74.67;101692.69;7354096;19;20010;-63
2022/05/02 10:53:07;;;;;;;0.10;0.10;;;;;;;16.73;74.59;101707.19;7358077;19;20486;-62
2022/05/02 10:55:37;;;;;;;0.05;0.05;;;;;;;16.73;74.89;101712.47;7359638;19;20633;-62
2022/05/02 10:58:10;;;;;;;0.00;0.00;;;;;;;16.82;75.12;101706.88;7355885;19;20367;-62
2022/05/02 11:01:18;;;;;;;0.05;0.05;;;;;;;16.88;74.97;101702.31;7357596;19;20011;-63
2022/05/02 11:04:19;;;;;;;0.00;0.00;;;;;;;16.99;74.89;101713.41;7252214;19;2004644;-62
2022/05/02 11:07:30;;;;;;;0.00;0.00;;;;;;;17.05;74.64;101707.91;7255508;19;2004001;-62
2022/05/02 11:09:55;;;;;;;0.10;0.10;;;;;;;17.11;74.05;101715.63;7249705;19;2004290;-62
2022/05/02 11:12:36;;;;;;;0.00;0.00;;;;;;;17.23;74.09;101712.53;7342259;19;20404;-63
2022/05/02 11:15:07;;;;;;;0.00;0.00;;;;;;;17.29;73.40;101712.38;7340265;19;20033;-63
2022/05/02 11:17:51;;;;;;;0.05;0.05;;;;;;;17.31;73.78;101715.78;7362169;19;20029;-63
2022/05/02 11:23:17;;;;;;;0.10;0.10;;;;;;;17.50;73.18;101720.44;7360918;19;20023;-63
2022/05/02 11:26:09;;;;;;;0.10;0.10;;;;;;;17.60;73.56;101706.00;7364372;19;20056;-62
2022/05/02 11:29:04;;;;;;;0.10;0.10;;;;;;;17.76;73.62;101719.53;7260023;19;2004568;-63
2022/05/02 11:32:03;;;;;;;0.00;0.00;;;;;;;17.80;73.68;101703.53;7260533;19;2004634;-63
2022/05/02 11:34:34;;;;;;;0.10;0.10;;;;;;;17.88;71.39;101713.78;7253437;19;2004483;-62
2022/05/02 11:37:00;;;;;;;0.10;0.10;;;;;;;17.98;71.32;101706.38;7359613;19;20086;-62
2022/05/02 11:39:40;;;;;;;0.10;0.10;;;;;;;18.15;72.68;101709.28;7363818;19;20010;-62
2022/05/02 11:42:14;;;;;;;0.10;0.10;;;;;;;18.24;72.71;101708.03;7362898;19;20018;-62
2022/05/02 11:45:07;;;;;;;0.00;0.00;;;;;;;18.41;72.64;101698.53;7352216;19;20006;-62
2022/05/02 11:47:51;;;;;;;0.10;0.10;;;;;;;18.50;70.86;101693.78;7257004;19;2004475;-62
2022/05/02 11:50:22;;;;;;;0.08;0.08;;;;;;;18.71;72.20;101689.47;7351323;19;20010;-63
2022/05/02 11:52:59;;;;;;;0.10;0.10;;;;;;;18.87;70.88;101688.78;7355889;19;20010;-62
2022/05/02 11:55:34;;;;;;;0.10;0.10;;;;;;;19.03;70.71;101696.06;7359251;19;20009;-62
2022/05/02 11:58:26;;;;;;;0.10;0.10;;;;;;;19.19;70.74;101689.19;7362805;19;20006;-63
2022/05/02 12:01:06;;;;;;;0.10;0.10;;;;;;;19.20;69.35;101693.56;7261985;19;2004397;-62
2022/05/02 12:03:51;;;;;;;0.00;0.00;;;;;;;19.36;70.01;101697.28;7361307;19;20109;-63
2022/05/02 12:06:23;;;;;;;0.10;0.10;;;;;;;19.25;70.00;101686.28;7362870;19;20073;-62
2022/05/02 12:08:51;;;;;;;0.00;0.00;;;;;;;19.43;70.18;101704.03;7360529;19;20010;-62
2022/05/02 12:11:16;;;;;;;0.10;0.10;;;;;;;19.52;70.05;101696.63;7360782;19;20036;-62
2022/05/02 12:13:47;;;;;;;0.10;0.10;;;;;;;19.62;68.35;101697.97;7361711;19;20368;-62
2022/05/02 12:16:17;;;;;;;0.10;0.10;;;;;;;19.76;70.04;101706.13;7358545;19;20631;-63
2022/05/02 12:18:53;;;;;;;0.10;0.10;;;;;;;19.87;70.19;101693.28;7364547;19;20050;-63
2022/05/02 12:21:24;;;;;;;0.10;0.10;;;;;;;19.96;69.84;101692.81;7353272;19;20014;-63